createdAt,value
2018-06-28T00:00:35.465Z,1023.43
2018-06-28T00:01:35.300Z,1023.39
2018-06-28T00:02:35.355Z,1023.45
2018-06-28T00:03:35.457Z,1023.45
2018-06-28T00:04:35.440Z,1023.4
2018-06-28T00:05:35.177Z,1023.4
2018-06-28T00:06:35.321Z,1023.42
2018-06-28T00:07:35.212Z,1023.4
2018-06-28T00:08:35.297Z,1023.41
2018-06-28T00:09:35.380Z,1023.42
2018-06-28T00:10:35.376Z,1023.41
2018-06-28T00:11:35.442Z,1023.41
2018-06-28T00:12:35.265Z,1023.41
2018-06-28T00:13:35.439Z,1023.38
2018-06-28T00:14:35.190Z,1023.42
2018-06-28T00:15:35.393Z,1023.47
2018-06-28T00:16:35.227Z,1023.41
2018-06-28T00:17:35.296Z,1023.38
2018-06-28T00:18:35.210Z,1023.39
2018-06-28T00:19:35.354Z,1023.41
2018-06-28T00:20:35.186Z,1023.42
2018-06-28T00:21:35.233Z,1023.42
2018-06-28T00:22:35.394Z,1023.39
2018-06-28T00:23:35.252Z,1023.39
2018-06-28T00:24:35.197Z,1023.4
2018-06-28T00:25:35.178Z,1023.39
2018-06-28T00:26:35.213Z,1023.36
2018-06-28T00:27:35.350Z,1023.38
2018-06-28T00:28:35.319Z,1023.42
2018-06-28T00:29:35.345Z,1023.35
2018-06-28T00:30:35.238Z,1023.36
2018-06-28T00:31:35.286Z,1023.35
2018-06-28T00:32:35.208Z,1023.42
2018-06-28T00:33:35.418Z,1023.34
2018-06-28T00:34:35.179Z,1023.33
2018-06-28T00:35:35.405Z,1023.29
2018-06-28T00:36:35.268Z,1023.29
2018-06-28T00:37:35.318Z,1023.34
2018-06-28T00:38:35.354Z,1023.29
2018-06-28T00:39:35.257Z,1023.32
2018-06-28T00:40:35.330Z,1023.27
2018-06-28T00:41:35.224Z,1023.25
2018-06-28T00:42:35.390Z,1023.22
2018-06-28T00:43:35.191Z,1023.23
2018-06-28T00:44:35.282Z,1023.23
2018-06-28T00:45:35.424Z,1023.25
2018-06-28T00:46:35.174Z,1023.21
2018-06-28T00:47:35.277Z,1023.19
2018-06-28T00:48:35.233Z,1023.2
2018-06-28T00:49:35.289Z,1023.21
2018-06-28T00:50:35.201Z,1023.19
2018-06-28T00:51:35.337Z,1023.21
2018-06-28T00:52:35.208Z,1023.22
2018-06-28T00:53:35.410Z,1023.2
2018-06-28T00:54:35.417Z,1023.19
2018-06-28T00:55:35.406Z,1023.19
2018-06-28T00:56:35.235Z,1023.21
2018-06-28T00:57:35.193Z,1023.25
2018-06-28T00:58:35.385Z,1023.21
2018-06-28T00:59:35.288Z,1023.18
2018-06-28T01:00:35.146Z,1023.19
2018-06-28T01:01:35.175Z,1023.23
2018-06-28T01:02:35.192Z,1023.13
2018-06-28T01:03:35.447Z,1023.19
2018-06-28T01:04:35.426Z,1023.19
2018-06-28T01:05:35.378Z,1023.2
2018-06-28T01:06:35.395Z,1023.2
2018-06-28T01:07:35.340Z,1023.18
2018-06-28T01:08:35.403Z,1023.16
2018-06-28T01:09:35.282Z,1023.16
2018-06-28T01:10:35.162Z,1023.21
2018-06-28T01:11:35.455Z,1023.18
2018-06-28T01:12:35.418Z,1023.19
2018-06-28T01:13:35.512Z,1023.18
2018-06-28T01:14:35.370Z,1023.23
2018-06-28T01:15:35.412Z,1023.19
2018-06-28T01:16:35.406Z,1023.2
2018-06-28T01:17:35.352Z,1023.19
2018-06-28T01:18:35.367Z,1023.2
2018-06-28T01:19:35.172Z,1023.19
2018-06-28T01:20:35.411Z,1023.22
2018-06-28T01:21:35.362Z,1023.16
2018-06-28T01:22:35.200Z,1023.12
2018-06-28T01:23:35.168Z,1023.1
2018-06-28T01:24:35.305Z,1023.07
2018-06-28T01:25:35.209Z,1023.08
2018-06-28T01:26:35.312Z,1023.05
2018-06-28T01:27:35.194Z,1023.03
2018-06-28T01:28:35.169Z,1023.03
2018-06-28T01:29:35.348Z,1023.02
2018-06-28T01:30:35.223Z,1022.99
2018-06-28T01:31:35.305Z,1023.01
2018-06-28T01:32:35.338Z,1023.01
2018-06-28T01:33:35.393Z,1023.01
2018-06-28T01:34:35.300Z,1022.98
2018-06-28T01:35:35.361Z,1023.01
2018-06-28T01:36:35.379Z,1023.06
2018-06-28T01:37:35.172Z,1023.06
2018-06-28T01:38:35.231Z,1023.1
2018-06-28T01:39:35.201Z,1023.11
2018-06-28T01:40:35.535Z,1023.14
2018-06-28T01:41:35.255Z,1023.1
2018-06-28T01:42:35.161Z,1023.12
2018-06-28T01:43:35.210Z,1023.14
2018-06-28T01:44:35.262Z,1023.12
2018-06-28T01:45:35.340Z,1023.17
2018-06-28T01:46:35.278Z,1023.14
2018-06-28T01:47:35.400Z,1023.15
2018-06-28T01:48:35.275Z,1023.14
2018-06-28T01:49:35.499Z,1023.1
2018-06-28T01:50:35.466Z,1023.13
2018-06-28T01:51:35.322Z,1023.07
2018-06-28T01:52:35.322Z,1023.1
2018-06-28T01:53:35.227Z,1023.06
2018-06-28T01:54:35.488Z,1023.06
2018-06-28T01:55:35.248Z,1023.08
2018-06-28T01:56:35.402Z,1023.07
2018-06-28T01:57:35.391Z,1023.06
2018-06-28T01:58:35.296Z,1023.09
2018-06-28T01:59:35.152Z,1023.09
2018-06-28T02:00:35.224Z,1023.07
2018-06-28T02:01:35.371Z,1023.08
2018-06-28T02:02:35.256Z,1023.06
2018-06-28T02:03:35.209Z,1023.05
2018-06-28T02:04:35.393Z,1023.06
2018-06-28T02:05:35.253Z,1023.08
2018-06-28T02:06:35.349Z,1023.03
2018-06-28T02:07:35.351Z,1023.04
2018-06-28T02:08:35.378Z,1023.04
2018-06-28T02:09:35.233Z,1023.03
2018-06-28T02:10:35.174Z,1023.07
2018-06-28T02:11:35.293Z,1022.99
2018-06-28T02:12:35.181Z,1023.03
2018-06-28T02:13:35.214Z,1023.01
2018-06-28T02:14:35.349Z,1022.97
2018-06-28T02:15:35.373Z,1023
2018-06-28T02:16:35.314Z,1022.94
2018-06-28T02:17:35.152Z,1022.96
2018-06-28T02:18:35.340Z,1023
2018-06-28T02:19:35.212Z,1022.97
2018-06-28T02:20:35.287Z,1022.99
2018-06-28T02:21:35.280Z,1022.99
2018-06-28T02:22:35.440Z,1022.97
2018-06-28T02:23:35.315Z,1022.99
2018-06-28T02:24:35.436Z,1022.96
2018-06-28T02:25:35.178Z,1023
2018-06-28T02:26:35.168Z,1023
2018-06-28T02:27:35.324Z,1023.02
2018-06-28T02:28:35.214Z,1022.99
2018-06-28T02:29:35.366Z,1023.03
2018-06-28T02:30:35.278Z,1023.01
2018-06-28T02:31:35.357Z,1023.02
2018-06-28T02:32:35.380Z,1023
2018-06-28T02:33:35.194Z,1023
2018-06-28T02:34:35.267Z,1023.03
2018-06-28T02:35:35.162Z,1023.01
2018-06-28T02:36:35.337Z,1023.02
2018-06-28T02:37:35.372Z,1023.05
2018-06-28T02:38:35.299Z,1023.04
2018-06-28T02:39:35.358Z,1023.03
2018-06-28T02:40:35.376Z,1023.05
2018-06-28T02:41:35.302Z,1023.03
2018-06-28T02:42:35.345Z,1023.02
2018-06-28T02:43:35.180Z,1023.1
2018-06-28T02:44:35.082Z,1023.09
2018-06-28T02:45:35.290Z,1023.07
2018-06-28T02:46:35.364Z,1023.07
2018-06-28T02:47:35.196Z,1023.07
2018-06-28T02:48:35.227Z,1023.12
2018-06-28T02:49:35.323Z,1023.03
2018-06-28T02:50:35.300Z,1023.1
2018-06-28T02:51:35.303Z,1023.12
2018-06-28T02:52:35.325Z,1023.1
2018-06-28T02:53:35.370Z,1023.11
2018-06-28T02:54:35.298Z,1023.05
2018-06-28T02:55:35.074Z,1023.06
2018-06-28T02:56:35.181Z,1023.09
2018-06-28T02:57:35.271Z,1023.08
2018-06-28T02:58:35.381Z,1023.02
2018-06-28T02:59:35.206Z,1023.04
2018-06-28T03:00:35.294Z,1023
2018-06-28T03:01:35.129Z,1023
2018-06-28T03:02:35.355Z,1022.98
2018-06-28T03:03:35.423Z,1022.99
2018-06-28T03:04:35.146Z,1022.98
2018-06-28T03:05:35.257Z,1022.95
2018-06-28T03:06:35.472Z,1022.96
2018-06-28T03:07:35.136Z,1022.95
2018-06-28T03:08:35.380Z,1022.99
2018-06-28T03:09:35.531Z,1023.01
2018-06-28T03:10:35.272Z,1023.03
2018-06-28T03:11:35.406Z,1023.03
2018-06-28T03:12:35.394Z,1023.03
2018-06-28T03:13:35.192Z,1023.04
2018-06-28T03:14:35.208Z,1022.97
2018-06-28T03:15:35.178Z,1023
2018-06-28T03:16:35.352Z,1023.07
2018-06-28T03:17:35.326Z,1023.04
2018-06-28T03:18:35.141Z,1023.07
2018-06-28T03:19:35.346Z,1023
2018-06-28T03:20:35.329Z,1022.99
2018-06-28T03:21:35.277Z,1023
2018-06-28T03:22:35.184Z,1022.99
2018-06-28T03:23:35.657Z,1023.03
2018-06-28T03:24:35.137Z,1023.04
2018-06-28T03:25:35.243Z,1023.01
2018-06-28T03:26:35.375Z,1022.98
2018-06-28T03:27:35.198Z,1022.94
2018-06-28T03:28:35.373Z,1022.94
2018-06-28T03:29:35.239Z,1022.97
2018-06-28T03:30:35.343Z,1022.99
2018-06-28T03:31:35.347Z,1022.98
2018-06-28T03:32:35.265Z,1023.02
2018-06-28T03:33:35.347Z,1023.02
2018-06-28T03:34:35.372Z,1022.97
2018-06-28T03:35:35.143Z,1023.02
2018-06-28T03:36:35.317Z,1022.98
2018-06-28T03:37:35.446Z,1023.03
2018-06-28T03:38:35.186Z,1023.01
2018-06-28T03:39:35.238Z,1023.03
2018-06-28T03:40:35.268Z,1023.05
2018-06-28T03:41:35.279Z,1022.97
2018-06-28T03:42:35.314Z,1022.99
2018-06-28T03:43:35.205Z,1022.99
2018-06-28T03:44:35.174Z,1023
2018-06-28T03:45:35.232Z,1022.97
2018-06-28T03:46:35.294Z,1023.01
2018-06-28T03:47:35.164Z,1022.97
2018-06-28T03:48:35.175Z,1023.02
2018-06-28T03:49:35.383Z,1022.97
2018-06-28T03:50:35.376Z,1022.96
2018-06-28T03:51:35.151Z,1022.93
2018-06-28T03:52:35.367Z,1022.98
2018-06-28T03:53:35.132Z,1023
2018-06-28T03:54:35.332Z,1023.02
2018-06-28T03:55:35.331Z,1023.03
2018-06-28T03:56:35.198Z,1023.03
2018-06-28T03:57:35.344Z,1023.04
2018-06-28T03:58:35.318Z,1023.04
2018-06-28T03:59:35.295Z,1023.06
2018-06-28T04:00:35.357Z,1023.11
2018-06-28T04:01:35.372Z,1023.09
2018-06-28T04:02:35.163Z,1023.13
2018-06-28T04:03:35.428Z,1023.07
2018-06-28T04:04:35.234Z,1023.09
2018-06-28T04:05:35.285Z,1023.12
2018-06-28T04:06:35.769Z,1023.1
2018-06-28T04:07:35.461Z,1023.11
2018-06-28T04:08:35.375Z,1023.09
2018-06-28T04:09:35.232Z,1023.14
2018-06-28T04:10:35.345Z,1023.14
2018-06-28T04:11:35.276Z,1023.17
2018-06-28T04:12:35.408Z,1023.13
2018-06-28T04:13:35.058Z,1023.11
2018-06-28T04:14:35.380Z,1023.12
2018-06-28T04:15:35.235Z,1023.15
2018-06-28T04:16:35.292Z,1023.11
2018-06-28T04:17:35.130Z,1023.12
2018-06-28T04:18:35.136Z,1023.13
2018-06-28T04:19:35.302Z,1023.15
2018-06-28T04:20:35.152Z,1023.08
2018-06-28T04:21:35.234Z,1023.13
2018-06-28T04:22:35.110Z,1023.13
2018-06-28T04:23:35.364Z,1023.16
2018-06-28T04:24:35.261Z,1023.13
2018-06-28T04:25:35.142Z,1023.18
2018-06-28T04:26:35.254Z,1023.22
2018-06-28T04:27:35.210Z,1023.2
2018-06-28T04:28:35.291Z,1023.21
2018-06-28T04:29:35.364Z,1023.17
2018-06-28T04:30:35.229Z,1023.17
2018-06-28T04:31:35.146Z,1023.16
2018-06-28T04:32:35.296Z,1023.17
2018-06-28T04:33:35.201Z,1023.12
2018-06-28T04:34:35.359Z,1023.19
2018-06-28T04:35:35.297Z,1023.2
2018-06-28T04:36:35.198Z,1023.19
2018-06-28T04:37:35.347Z,1023.22
2018-06-28T04:38:35.246Z,1023.24
2018-06-28T04:39:35.188Z,1023.16
2018-06-28T04:40:35.070Z,1023.18
2018-06-28T04:41:35.318Z,1023.17
2018-06-28T04:42:35.508Z,1023.22
2018-06-28T04:43:35.586Z,1023.22
2018-06-28T04:44:35.300Z,1023.23
2018-06-28T04:45:35.278Z,1023.23
2018-06-28T04:46:35.361Z,1023.21
2018-06-28T04:47:35.356Z,1023.23
2018-06-28T04:48:35.123Z,1023.23
2018-06-28T04:49:35.168Z,1023.19
2018-06-28T04:50:35.172Z,1023.24
2018-06-28T04:51:35.189Z,1023.2
2018-06-28T04:52:35.223Z,1023.21
2018-06-28T04:53:35.368Z,1023.27
2018-06-28T04:54:35.193Z,1023.24
2018-06-28T04:55:35.293Z,1023.16
2018-06-28T04:56:35.170Z,1023.22
2018-06-28T04:57:35.290Z,1023.2
2018-06-28T04:58:35.117Z,1023.17
2018-06-28T04:59:35.307Z,1023.18
2018-06-28T05:00:35.207Z,1023.21
2018-06-28T05:01:35.295Z,1023.2
2018-06-28T05:02:35.242Z,1023.24
2018-06-28T05:03:35.220Z,1023.22
2018-06-28T05:04:35.185Z,1023.27
2018-06-28T05:05:35.148Z,1023.23
2018-06-28T05:06:35.144Z,1023.23
2018-06-28T05:07:35.115Z,1023.23
2018-06-28T05:08:35.212Z,1023.23
2018-06-28T05:09:35.324Z,1023.18
2018-06-28T05:10:35.314Z,1023.17
2018-06-28T05:11:35.356Z,1023.16
2018-06-28T05:12:35.195Z,1023.11
2018-06-28T05:13:35.269Z,1023.09
2018-06-28T05:14:35.297Z,1023.12
2018-06-28T05:15:35.149Z,1023.12
2018-06-28T05:16:35.121Z,1023.11
2018-06-28T05:17:35.324Z,1023.12
2018-06-28T05:18:35.359Z,1023.14
2018-06-28T05:19:35.210Z,1023.15
2018-06-28T05:20:35.406Z,1023.13
2018-06-28T05:21:35.230Z,1023.18
2018-06-28T05:22:35.342Z,1023.11
2018-06-28T05:23:35.135Z,1023.18
2018-06-28T05:24:35.600Z,1023.13
2018-06-28T05:25:35.079Z,1023.18
2018-06-28T05:26:35.268Z,1023.2
2018-06-28T05:27:35.386Z,1023.19
2018-06-28T05:28:35.255Z,1023.16
2018-06-28T05:29:35.329Z,1023.15
2018-06-28T05:30:35.263Z,1023.18
2018-06-28T05:31:35.274Z,1023.18
2018-06-28T05:32:35.366Z,1023.2
2018-06-28T05:33:35.317Z,1023.22
2018-06-28T05:34:45.275Z,1023.17
2018-06-28T05:35:35.014Z,1023.2
2018-06-28T05:36:35.168Z,1023.13
2018-06-28T05:37:35.085Z,1023.18
2018-06-28T05:38:35.198Z,1023.18
2018-06-28T05:39:35.194Z,1023.16
2018-06-28T05:40:35.291Z,1023.16
2018-06-28T05:41:35.367Z,1023.12
2018-06-28T05:42:35.293Z,1023.13
2018-06-28T05:43:35.375Z,1023.12
2018-06-28T05:44:35.236Z,1023.08
2018-06-28T05:45:35.431Z,1023.12
2018-06-28T05:46:35.163Z,1023.09
2018-06-28T05:47:35.203Z,1023.12
2018-06-28T05:48:35.295Z,1023.12
2018-06-28T05:49:35.128Z,1023.12
2018-06-28T05:50:35.264Z,1023.14
2018-06-28T05:51:35.332Z,1023.12
2018-06-28T05:52:35.314Z,1023.1
2018-06-28T05:53:35.260Z,1023.13
2018-06-28T05:54:35.267Z,1023.11
2018-06-28T05:55:35.086Z,1023.08
2018-06-28T05:56:35.443Z,1023.07
2018-06-28T05:57:35.333Z,1023.05
2018-06-28T05:58:35.488Z,1023.08
2018-06-28T05:59:35.326Z,1023.07
2018-06-28T06:00:35.639Z,1023.08
2018-06-28T06:01:35.350Z,1023.07
2018-06-28T06:02:35.252Z,1023.06
2018-06-28T06:03:35.347Z,1023.04
2018-06-28T06:04:35.164Z,1023.05
2018-06-28T06:05:35.059Z,1023.05
2018-06-28T06:06:35.232Z,1023.05
2018-06-28T06:07:35.175Z,1023.06
2018-06-28T06:08:35.344Z,1023.02
2018-06-28T06:09:35.413Z,1023.12
2018-06-28T06:10:35.310Z,1023.07
2018-06-28T06:11:35.195Z,1023.07
2018-06-28T06:12:35.173Z,1023.06
2018-06-28T06:13:35.062Z,1023.07
2018-06-28T06:14:35.362Z,1023.05
2018-06-28T06:15:35.252Z,1023.11
2018-06-28T06:16:35.325Z,1023.08
2018-06-28T06:17:35.223Z,1023.06
2018-06-28T06:18:35.104Z,1023.08
2018-06-28T06:19:35.365Z,1023.08
2018-06-28T06:20:35.235Z,1023.1
2018-06-28T06:21:35.247Z,1023.09
2018-06-28T06:22:35.195Z,1023.05
2018-06-28T06:23:35.221Z,1023.12
2018-06-28T06:24:35.264Z,1023.07
2018-06-28T06:25:35.164Z,1023.03
2018-06-28T06:26:35.208Z,1023.02
2018-06-28T06:27:35.179Z,1023.08
2018-06-28T06:28:35.229Z,1023.09
2018-06-28T06:29:35.227Z,1023.06
2018-06-28T06:30:35.274Z,1023.07
2018-06-28T06:31:35.084Z,1023.12
2018-06-28T06:32:35.255Z,1023.1
2018-06-28T06:33:35.303Z,1023.04
2018-06-28T06:34:35.842Z,1023.06
2018-06-28T06:35:35.304Z,1023.07
2018-06-28T06:36:35.210Z,1023.07
2018-06-28T06:37:35.255Z,1023.15
2018-06-28T06:38:35.381Z,1023.1
2018-06-28T06:39:35.335Z,1023.11
2018-06-28T06:40:35.087Z,1023.08
2018-06-28T06:41:35.355Z,1023.1
2018-06-28T06:42:35.177Z,1023.11
2018-06-28T06:43:35.171Z,1023.11
2018-06-28T06:44:35.261Z,1023.11
2018-06-28T06:45:35.219Z,1023.08
2018-06-28T06:46:35.219Z,1023.1
2018-06-28T06:47:35.429Z,1023.06
2018-06-28T06:48:35.296Z,1023.11
2018-06-28T06:49:35.040Z,1023.04
2018-06-28T06:50:35.100Z,1023.1
2018-06-28T06:51:35.357Z,1023.1
2018-06-28T06:52:35.222Z,1023.14
2018-06-28T06:53:35.182Z,1023.05
2018-06-28T06:54:35.196Z,1023.1
2018-06-28T06:55:35.140Z,1023.12
2018-06-28T06:56:35.108Z,1023.09
2018-06-28T06:57:35.472Z,1023.11
2018-06-28T06:58:35.113Z,1023.13
2018-06-28T06:59:35.195Z,1023.15
2018-06-28T07:00:35.390Z,1023.13
2018-06-28T07:01:35.323Z,1023.11
2018-06-28T07:02:35.286Z,1023.03
2018-06-28T07:03:35.486Z,1022.99
2018-06-28T07:04:35.401Z,1023.02
2018-06-28T07:05:35.278Z,1022.99
2018-06-28T07:06:35.176Z,1022.99
2018-06-28T07:07:35.066Z,1022.98
2018-06-28T07:08:35.343Z,1022.95
2018-06-28T07:09:35.314Z,1022.93
2018-06-28T07:10:35.174Z,1022.96
2018-06-28T07:11:35.097Z,1022.92
2018-06-28T07:12:35.253Z,1022.91
2018-06-28T07:13:35.174Z,1022.86
2018-06-28T07:14:35.290Z,1022.93
2018-06-28T07:15:35.168Z,1022.91
2018-06-28T07:16:45.121Z,1022.88
2018-06-28T07:17:35.233Z,1022.89
2018-06-28T07:18:35.396Z,1022.86
2018-06-28T07:19:35.234Z,1022.82
2018-06-28T07:20:35.075Z,1022.83
2018-06-28T07:21:35.008Z,1022.81
2018-06-28T07:22:35.229Z,1022.85
2018-06-28T07:23:35.178Z,1022.84
2018-06-28T07:24:35.218Z,1022.8
2018-06-28T07:25:35.143Z,1022.79
2018-06-28T07:26:35.246Z,1022.81
2018-06-28T07:27:35.085Z,1022.77
2018-06-28T07:28:35.191Z,1022.75
2018-06-28T07:29:35.167Z,1022.75
2018-06-28T07:30:35.437Z,1022.8
2018-06-28T07:31:35.066Z,1022.82
2018-06-28T07:32:35.258Z,1022.8
2018-06-28T07:33:35.299Z,1022.79
2018-06-28T07:34:35.297Z,1022.8
2018-06-28T07:35:35.487Z,1022.82
2018-06-28T07:36:35.173Z,1022.85
2018-06-28T07:37:35.020Z,1022.81
2018-06-28T07:38:35.168Z,1022.79
2018-06-28T07:39:35.088Z,1022.77
2018-06-28T07:40:35.241Z,1022.78
2018-06-28T07:41:35.125Z,1022.77
2018-06-28T07:42:35.125Z,1022.74
2018-06-28T07:43:35.162Z,1022.73
2018-06-28T07:44:35.193Z,1022.75
2018-06-28T07:45:35.154Z,1022.77
2018-06-28T07:46:35.226Z,1022.74
2018-06-28T07:47:35.193Z,1022.65
2018-06-28T07:48:35.095Z,1022.72
2018-06-28T07:49:35.189Z,1022.7
2018-06-28T07:50:35.257Z,1022.68
2018-06-28T07:51:35.314Z,1022.74
2018-06-28T07:52:35.249Z,1022.69
2018-06-28T07:53:35.160Z,1022.69
2018-06-28T07:54:35.124Z,1022.68
2018-06-28T07:55:35.196Z,1022.68
2018-06-28T07:56:35.148Z,1022.66
2018-06-28T07:57:35.108Z,1022.61
2018-06-28T07:58:35.303Z,1022.59
2018-06-28T07:59:35.300Z,1022.61
2018-06-28T08:00:35.437Z,1022.57
2018-06-28T08:01:35.368Z,1022.6
2018-06-28T08:02:35.421Z,1022.61
2018-06-28T08:03:35.133Z,1022.63
2018-06-28T08:04:35.076Z,1022.61
2018-06-28T08:05:35.101Z,1022.58
2018-06-28T08:06:35.129Z,1022.54
2018-06-28T08:07:35.340Z,1022.56
2018-06-28T08:08:35.312Z,1022.63
2018-06-28T08:09:35.178Z,1022.6
2018-06-28T08:10:36.345Z,1022.58
2018-06-28T08:11:35.190Z,1022.62
2018-06-28T08:12:35.014Z,1022.62
2018-06-28T08:13:35.121Z,1022.57
2018-06-28T08:14:35.162Z,1022.58
2018-06-28T08:15:35.033Z,1022.58
2018-06-28T08:16:35.082Z,1022.61
2018-06-28T08:17:35.240Z,1022.57
2018-06-28T08:18:35.180Z,1022.59
2018-06-28T08:19:35.352Z,1022.59
2018-06-28T08:20:35.240Z,1022.56
2018-06-28T08:21:35.579Z,1022.61
2018-06-28T08:22:35.136Z,1022.59
2018-06-28T08:23:35.170Z,1022.58
2018-06-28T08:24:35.084Z,1022.58
2018-06-28T08:25:35.294Z,1022.56
2018-06-28T08:26:35.060Z,1022.52
2018-06-28T08:27:35.264Z,1022.55
2018-06-28T08:28:35.141Z,1022.56
2018-06-28T08:29:35.184Z,1022.55
2018-06-28T08:30:35.214Z,1022.54
2018-06-28T08:31:35.256Z,1022.6
2018-06-28T08:32:35.049Z,1022.58
2018-06-28T08:33:35.080Z,1022.58
2018-06-28T08:34:35.084Z,1022.64
2018-06-28T08:35:35.173Z,1022.63
2018-06-28T08:36:35.329Z,1022.59
2018-06-28T08:37:35.047Z,1022.62
2018-06-28T08:38:35.172Z,1022.63
2018-06-28T08:39:35.266Z,1022.64
2018-06-28T08:40:35.153Z,1022.64
2018-06-28T08:41:35.221Z,1022.56
2018-06-28T08:42:35.094Z,1022.64
2018-06-28T08:43:35.218Z,1022.59
2018-06-28T08:44:35.229Z,1022.55
2018-06-28T08:45:35.115Z,1022.54
2018-06-28T08:46:35.390Z,1022.54
2018-06-28T08:47:35.139Z,1022.56
2018-06-28T08:48:35.215Z,1022.54
2018-06-28T08:49:35.056Z,1022.59
2018-06-28T08:50:35.112Z,1022.58
2018-06-28T08:51:35.015Z,1022.59
2018-06-28T08:52:35.220Z,1022.58
2018-06-28T08:53:35.179Z,1022.6
2018-06-28T08:54:35.301Z,1022.56
2018-06-28T08:55:35.177Z,1022.53
2018-06-28T08:56:35.285Z,1022.52
2018-06-28T08:57:35.259Z,1022.54
2018-06-28T08:58:35.205Z,1022.53
2018-06-28T08:59:35.161Z,1022.5
2018-06-28T09:00:35.104Z,1022.45
2018-06-28T09:01:35.128Z,1022.42
2018-06-28T09:02:35.310Z,1022.43
2018-06-28T09:03:35.025Z,1022.42
2018-06-28T09:04:35.142Z,1022.39
2018-06-28T09:05:35.096Z,1022.41
2018-06-28T09:06:35.379Z,1022.39
2018-06-28T09:07:35.111Z,1022.36
2018-06-28T09:08:35.153Z,1022.4
2018-06-28T09:09:35.363Z,1022.41
2018-06-28T09:10:35.170Z,1022.4
2018-06-28T09:11:35.063Z,1022.4
2018-06-28T09:12:35.209Z,1022.36
2018-06-28T09:13:35.260Z,1022.37
2018-06-28T09:14:35.064Z,1022.36
2018-06-28T09:15:35.222Z,1022.37
2018-06-28T09:16:35.254Z,1022.33
2018-06-28T09:17:35.108Z,1022.33
2018-06-28T09:18:35.390Z,1022.31
2018-06-28T09:19:35.344Z,1022.31
2018-06-28T09:20:35.022Z,1022.3
2018-06-28T09:21:35.089Z,1022.28
2018-06-28T09:22:35.272Z,1022.26
2018-06-28T09:23:35.116Z,1022.28
2018-06-28T09:24:35.259Z,1022.26
2018-06-28T09:25:35.185Z,1022.25
2018-06-28T09:26:35.110Z,1022.26
2018-06-28T09:27:35.092Z,1022.22
2018-06-28T09:28:35.247Z,1022.25
2018-06-28T09:29:35.033Z,1022.24
2018-06-28T09:30:35.240Z,1022.25
2018-06-28T09:31:35.347Z,1022.22
2018-06-28T09:32:35.146Z,1022.22
2018-06-28T09:33:35.268Z,1022.23
2018-06-28T09:34:35.175Z,1022.21
2018-06-28T09:35:35.250Z,1022.24
2018-06-28T09:36:35.171Z,1022.22
2018-06-28T09:37:35.233Z,1022.19
2018-06-28T09:38:35.230Z,1022.2
2018-06-28T09:39:35.097Z,1022.2
2018-06-28T09:40:35.058Z,1022.21
2018-06-28T09:41:35.208Z,1022.26
2018-06-28T09:42:35.061Z,1022.18
2018-06-28T09:43:35.257Z,1022.15
2018-06-28T09:44:35.375Z,1022.15
2018-06-28T09:45:35.176Z,1022.14
2018-06-28T09:46:35.081Z,1022.14
2018-06-28T09:47:35.128Z,1022.08
2018-06-28T09:48:35.115Z,1022.12
2018-06-28T09:49:35.171Z,1022.07
2018-06-28T09:50:35.381Z,1022.09
2018-06-28T09:51:35.096Z,1022.11
2018-06-28T09:52:35.201Z,1021.97
2018-06-28T09:53:35.260Z,1021.99
2018-06-28T09:54:35.054Z,1022.1
2018-06-28T09:55:35.066Z,1022.09
2018-06-28T09:56:34.993Z,1022.08
2018-06-28T09:57:35.332Z,1022.08
2018-06-28T09:58:35.144Z,1022.06
2018-06-28T09:59:35.333Z,1022.01
2018-06-28T10:00:35.823Z,1022.05
2018-06-28T10:01:35.231Z,1022.06
2018-06-28T10:02:35.198Z,1022.01
2018-06-28T10:03:35.115Z,1022.01
2018-06-28T10:04:35.318Z,1021.98
2018-06-28T10:05:35.115Z,1021.97
2018-06-28T10:06:35.119Z,1021.95
2018-06-28T10:07:35.134Z,1021.96
2018-06-28T10:08:35.517Z,1021.96
2018-06-28T10:09:35.091Z,1021.96
2018-06-28T10:10:35.270Z,1021.98
2018-06-28T10:11:35.152Z,1021.96
2018-06-28T10:12:35.117Z,1021.92
2018-06-28T10:13:35.132Z,1021.97
2018-06-28T10:14:35.045Z,1021.98
2018-06-28T10:15:35.207Z,1021.92
2018-06-28T10:16:35.143Z,1021.95
2018-06-28T10:17:35.151Z,1021.91
2018-06-28T10:18:35.196Z,1021.93
2018-06-28T10:19:35.156Z,1021.9
2018-06-28T10:20:35.216Z,1021.87
2018-06-28T10:21:35.222Z,1021.85
2018-06-28T10:22:35.037Z,1021.83
2018-06-28T10:23:35.297Z,1021.8
2018-06-28T10:24:35.481Z,1021.84
2018-06-28T10:25:35.021Z,1021.82
2018-06-28T10:26:35.293Z,1021.85
2018-06-28T10:27:35.116Z,1021.9
2018-06-28T10:28:35.020Z,1021.88
2018-06-28T10:29:35.328Z,1021.81
2018-06-28T10:30:35.169Z,1021.83
2018-06-28T10:31:35.076Z,1021.8
2018-06-28T10:32:35.439Z,1021.71
2018-06-28T10:33:35.093Z,1021.71
2018-06-28T10:34:35.035Z,1021.83
2018-06-28T10:35:35.286Z,1021.79
2018-06-28T10:36:35.392Z,1021.9
2018-06-28T10:37:35.345Z,1021.84
2018-06-28T10:38:35.310Z,1021.84
2018-06-28T10:39:35.365Z,1021.7
2018-06-28T10:40:35.135Z,1021.81
2018-06-28T10:41:35.110Z,1021.82
2018-06-28T10:42:35.227Z,1021.74
2018-06-28T10:43:34.989Z,1021.69
2018-06-28T10:44:35.342Z,1021.67
2018-06-28T10:45:35.055Z,1021.65
2018-06-28T10:46:35.143Z,1021.63
2018-06-28T10:47:35.652Z,1021.6
2018-06-28T10:48:35.089Z,1021.58
2018-06-28T10:49:35.255Z,1021.6
2018-06-28T10:50:35.343Z,1021.55
2018-06-28T10:51:35.148Z,1021.52
2018-06-28T10:52:34.968Z,1021.52
2018-06-28T10:53:35.199Z,1021.51
2018-06-28T10:54:35.168Z,1021.54
2018-06-28T10:55:35.003Z,1021.51
2018-06-28T10:56:35.108Z,1021.54
2018-06-28T10:57:35.033Z,1021.51
2018-06-28T10:58:35.429Z,1021.4
2018-06-28T10:59:35.531Z,1021.41
2018-06-28T11:00:35.213Z,1021.47
2018-06-28T11:01:34.993Z,1021.48
2018-06-28T11:02:35.470Z,1021.39
2018-06-28T11:03:35.263Z,1021.45
2018-06-28T11:04:35.164Z,1021.44
2018-06-28T11:05:35.103Z,1021.46
2018-06-28T11:06:35.328Z,1021.45
2018-06-28T11:07:35.449Z,1021.41
2018-06-28T11:08:35.400Z,1021.37
2018-06-28T11:09:35.120Z,1021.37
2018-06-28T11:10:35.001Z,1021.36
2018-06-28T11:11:35.040Z,1021.32
2018-06-28T11:12:35.048Z,1021.31
2018-06-28T11:13:35.102Z,1021.3
2018-06-28T11:14:35.052Z,1021.28
2018-06-28T11:15:35.268Z,1021.23
2018-06-28T11:16:35.237Z,1021.28
2018-06-28T11:17:35.327Z,1021.26
2018-06-28T11:18:35.317Z,1021.2
2018-06-28T11:19:35.048Z,1021.18
2018-06-28T11:20:35.342Z,1021.2
2018-06-28T11:21:35.062Z,1021.26
2018-06-28T11:22:35.146Z,1021.3
2018-06-28T11:23:35.284Z,1021.27
2018-06-28T11:24:35.075Z,1021.26
2018-06-28T11:25:35.195Z,1021.22
2018-06-28T11:26:35.499Z,1021.25
2018-06-28T11:27:35.260Z,1021.24
2018-06-28T11:28:35.134Z,1021.22
2018-06-28T11:29:35.331Z,1021.23
2018-06-28T11:30:35.079Z,1021.2
2018-06-28T11:31:35.287Z,1021.22
2018-06-28T11:32:35.073Z,1021.13
2018-06-28T11:33:35.046Z,1021.08
2018-06-28T11:34:35.110Z,1021.1
2018-06-28T11:35:35.241Z,1021.11
2018-06-28T11:36:35.258Z,1021.08
2018-06-28T11:37:35.125Z,1021.05
2018-06-28T11:38:35.136Z,1021.05
2018-06-28T11:39:35.255Z,1021.03
2018-06-28T11:40:35.204Z,1021.03
2018-06-28T11:41:35.215Z,1021.01
2018-06-28T11:42:35.060Z,1021.03
2018-06-28T11:43:35.169Z,1021.01
2018-06-28T11:44:35.488Z,1020.97
2018-06-28T11:45:35.250Z,1020.96
2018-06-28T11:46:35.013Z,1020.94
2018-06-28T11:47:35.307Z,1020.98
2018-06-28T11:48:35.116Z,1020.96
2018-06-28T11:49:35.106Z,1020.97
2018-06-28T11:50:35.237Z,1020.98
2018-06-28T11:51:35.282Z,1020.97
2018-06-28T11:52:35.266Z,1020.98
2018-06-28T11:53:35.295Z,1021
2018-06-28T11:54:35.223Z,1020.92
2018-06-28T11:55:47.543Z,1020.93
2018-06-28T11:56:35.115Z,1021.02
2018-06-28T11:57:35.331Z,1021.05
2018-06-28T11:58:34.987Z,1021.04
2018-06-28T11:59:35.227Z,1021.02
2018-06-28T12:00:35.004Z,1021.06
2018-06-28T12:01:35.196Z,1021.08
2018-06-28T12:02:35.141Z,1021.13
2018-06-28T12:03:35.250Z,1021.07
2018-06-28T12:04:35.130Z,1021.13
2018-06-28T12:05:35.422Z,1021.1
2018-06-28T12:06:35.265Z,1021.08
2018-06-28T12:07:34.956Z,1021.08
2018-06-28T12:08:35.140Z,1021.07
2018-06-28T12:09:35.032Z,1021.02